Time;durP1;ratioP1;P1;durP2;ratioP2;P2;SDS_P1;SDS_P2;PMS_P1;PMS_P2;Temp;Humidity;BMP_temperature;BMP_pressure;BME280_temperature;BME280_humidity;BME280_pressure;Samples;Min_cycle;Max_cycle;Signal;HPM_P1;HPM_P2
2023/10/06 00:01:19;;;;;;;;;;;14.30;99.90;;;;;;4916463;28;25090;-55
2023/10/06 00:03:44;;;;;;;;;;;14.40;99.90;;;;;;4915200;29;25068;-62
2023/10/06 00:06:21;;;;;;;;;;;14.40;99.90;;;;;;4915840;28;25085;-65
2023/10/06 00:08:51;;;;;;;;;;;14.40;99.90;;;;;;4917689;28;25062;-59
2023/10/06 00:11:40;;;;;;;;;;;14.40;99.90;;;;;;4916999;28;25080;-63
2023/10/06 00:14:07;;;;;;;;;;;14.40;99.90;;;;;;4880767;28;1071568;-60
2023/10/06 00:16:39;;;;;;;;;;;14.30;99.90;;;;;;4916737;28;25085;-56
2023/10/06 00:19:47;;;;;;;;;;;14.30;99.90;;;;;;4915919;28;25080;-65
2023/10/06 00:22:18;;;;;;;;;;;14.40;99.90;;;;;;4916533;28;25082;-65
2023/10/06 00:24:47;;;;;;;;;;;14.40;99.90;;;;;;4916772;28;25079;-63
2023/10/06 00:27:13;;;;;;;;;;;14.40;99.90;;;;;;4917120;28;25111;-64
2023/10/06 00:29:43;;;;;;;;;;;14.40;99.90;;;;;;4917032;29;25107;-64
2023/10/06 00:32:21;;;;;;;;;;;14.40;99.90;;;;;;4918997;28;25148;-60
2023/10/06 00:34:50;;;;;;;;;;;14.40;99.90;;;;;;4920059;28;25073;-63
2023/10/06 00:37:16;;;;;;;;;;;14.40;99.90;;;;;;4919709;28;25082;-59
2023/10/06 00:39:43;;;;;;;;;;;14.40;99.90;;;;;;4920054;28;25075;-55
2023/10/06 00:42:09;;;;;;;;;;;14.40;99.90;;;;;;4910660;29;25080;-58
2023/10/06 00:44:35;;;;;;;;;;;14.40;99.90;;;;;;4901483;29;25134;-59
2023/10/06 00:47:05;;;;;;;;;;;14.70;99.90;;;;;;4900854;28;25073;-58
2023/10/06 00:49:34;;;;;;;;;;;14.40;99.90;;;;;;4898716;28;25065;-59
2023/10/06 00:52:00;;;;;;;;;;;14.40;99.90;;;;;;4899663;28;25170;-63
2023/10/06 00:54:26;;;;;;;;;;;14.40;99.90;;;;;;4900230;28;25080;-65
2023/10/06 00:56:57;;;;;;;;;;;14.40;99.90;;;;;;4906718;28;25075;-62
2023/10/06 00:59:23;;;;;;;;;;;14.40;99.90;;;;;;4902621;28;25098;-59
2023/10/06 01:01:50;;;;;;;;;;;14.30;99.90;;;;;;4900555;29;25112;-59
2023/10/06 01:04:16;;;;;;;;;;;14.40;99.90;;;;;;4900055;28;25129;-60
2023/10/06 01:06:42;;;;;;;;;;;14.30;99.90;;;;;;4899733;28;25124;-61
2023/10/06 01:11:54;;;;;;;;;;;14.30;99.90;;;;;;4901006;29;25094;-61
2023/10/06 01:14:27;;;;;;;;;;;14.30;99.90;;;;;;4899918;28;25128;-58
2023/10/06 01:17:08;;;;;;;;;;;15.00;99.90;;;;;;4900462;28;25147;-60
2023/10/06 01:19:34;;;;;;;;;;;14.40;99.90;;;;;;4901169;28;25140;-62
2023/10/06 01:22:24;;;;;;;;;;;14.30;99.90;;;;;;5011981;28;25124;-58
2023/10/06 01:24:53;;;;;;;;;;;14.30;99.90;;;;;;5020772;28;25066;-57
2023/10/06 01:27:19;;;;;;;;;;;14.50;99.90;;;;;;5020377;28;25060;-56
2023/10/06 01:29:52;;;;;;;;;;;14.30;99.90;;;;;;5020135;28;25064;-59
2023/10/06 01:32:17;;;;;;;;;;;14.30;99.90;;;;;;5021139;28;25083;-65
2023/10/06 01:34:44;;;;;;;;;;;14.10;99.90;;;;;;5019444;28;25064;-64
2023/10/06 01:37:09;;;;;;;;;;;14.10;99.90;;;;;;5018450;28;25075;-63
2023/10/06 01:39:35;;;;;;;;;;;14.10;99.90;;;;;;4950641;28;25068;-64
2023/10/06 01:42:04;;;;;;;;;;;14.10;99.90;;;;;;4904960;29;25077;-60
2023/10/06 01:44:34;;;;;;;;;;;14.20;99.90;;;;;;4899776;28;25086;-60
2023/10/06 01:47:00;;;;;;;;;;;14.20;99.90;;;;;;4900175;28;25059;-60
2023/10/06 01:49:26;;;;;;;;;;;14.30;99.90;;;;;;4901053;28;25061;-58
2023/10/06 01:51:52;;;;;;;;;;;14.30;99.90;;;;;;4897694;29;25093;-58
2023/10/06 01:54:18;;;;;;;;;;;14.30;99.90;;;;;;4900754;28;25075;-61
2023/10/06 01:56:44;;;;;;;;;;;14.20;99.90;;;;;;4906590;29;25107;-63
2023/10/06 01:59:10;;;;;;;;;;;14.40;99.90;;;;;;4904180;28;25105;-64
2023/10/06 02:01:39;;;;;;;;;;;14.40;99.90;;;;;;4915967;29;20800;-65
2023/10/06 02:04:08;;;;;;;;;;;14.30;99.90;;;;;;4920857;28;25093;-64
2023/10/06 02:06:33;;;;;;;;;;;14.40;99.90;;;;;;4919058;28;25082;-62
2023/10/06 02:09:05;;;;;;;;;;;14.50;99.90;;;;;;4918352;29;25054;-58
2023/10/06 02:11:34;;;;;;;;;;;14.40;99.90;;;;;;4919593;29;25071;-60
2023/10/06 02:13:59;;;;;;;;;;;14.60;99.90;;;;;;4919433;28;25083;-53
2023/10/06 02:16:26;;;;;;;;;;;14.40;99.90;;;;;;4918079;28;25056;-62
2023/10/06 02:18:53;;;;;;;;;;;14.50;99.90;;;;;;4920315;29;25101;-63
2023/10/06 02:21:24;;;;;;;;;;;14.40;99.90;;;;;;4920007;28;25071;-55
2023/10/06 02:23:51;;;;;;;;;;;14.40;99.90;;;;;;4918402;28;25130;-58
2023/10/06 02:26:17;;;;;;;;;;;14.30;99.90;;;;;;4919860;28;25071;-54
2023/10/06 02:28:44;;;;;;;;;;;14.40;99.90;;;;;;4920702;29;25064;-62
2023/10/06 02:31:12;;;;;;;;;;;14.40;99.90;;;;;;4921089;29;25103;-61
2023/10/06 02:33:42;;;;;;;;;;;14.50;99.90;;;;;;4918902;28;25071;-59
2023/10/06 02:36:23;;;;;;;;;;;14.60;99.90;;;;;;4918504;29;25086;-63
2023/10/06 02:38:49;;;;;;;;;;;14.50;99.90;;;;;;4918246;29;25068;-61
2023/10/06 02:41:18;;;;;;;;;;;14.50;99.90;;;;;;4919273;29;25143;-65
2023/10/06 02:43:47;;;;;;;;;;;14.50;99.90;;;;;;4919050;28;25063;-57
2023/10/06 02:46:15;;;;;;;;;;;14.50;99.90;;;;;;4917838;28;25069;-56
2023/10/06 02:48:48;;;;;;;;;;;14.80;99.90;;;;;;4918882;28;25314;-64
2023/10/06 02:51:18;;;;;;;;;;;14.40;99.90;;;;;;4917052;29;25147;-60
2023/10/06 02:53:49;;;;;;;;;;;14.20;99.90;;;;;;4916981;29;25120;-61
2023/10/06 02:56:16;;;;;;;;;;;14.40;99.90;;;;;;4913235;29;25062;-59
2023/10/06 02:58:42;;;;;;;16.65;7.25;;;14.30;99.90;;;;;;4912868;28;19942;-65
2023/10/06 03:01:11;;;;;;;15.30;7.57;;;14.20;99.90;;;;;;4904235;29;20086;-61
2023/10/06 03:03:36;;;;;;;13.52;7.15;;;14.20;99.90;;;;;;4905111;28;20053;-59
2023/10/06 03:06:08;;;;;;;14.88;7.60;;;14.20;99.90;;;;;;4904759;28;20056;-58
2023/10/06 03:08:35;;;;;;;17.23;8.25;;;14.30;99.90;;;;;;4904242;29;20047;-56
2023/10/06 03:11:01;;;;;;;16.20;8.07;;;14.50;99.90;;;;;;4904754;29;20055;-65
2023/10/06 03:13:36;;;;;;;16.60;8.07;;;14.10;99.90;;;;;;4905009;28;20591;-59
2023/10/06 03:16:10;;;;;;;12.48;7.57;;;14.10;99.90;;;;;;4904519;28;20059;-56
2023/10/06 03:18:36;;;;;;;14.53;7.50;;;14.10;99.90;;;;;;4904603;29;20052;-65
2023/10/06 03:21:13;;;;;;;12.23;8.05;;;14.10;99.90;;;;;;4904072;28;20402;-60
2023/10/06 03:23:39;;;;;;;17.63;7.32;;;14.10;99.90;;;;;;4904254;29;20147;-64
2023/10/06 03:26:25;;;;;;;15.23;8.30;;;14.10;99.90;;;;;;4904980;29;20090;-55
2023/10/06 03:28:52;;;;;;;19.88;8.85;;;14.10;99.90;;;;;;4904096;28;20060;-57
2023/10/06 03:31:23;;;;;;;14.07;8.20;;;14.10;99.90;;;;;;4905136;29;20470;-62
2023/10/06 03:33:50;;;;;;;15.75;8.45;;;14.10;99.90;;;;;;4905146;28;20058;-57
2023/10/06 03:36:16;;;;;;;17.55;8.05;;;14.10;99.90;;;;;;4904388;28;20193;-55
2023/10/06 03:38:57;;;;;;;15.73;7.65;;;14.10;99.90;;;;;;4904056;28;20143;-62
2023/10/06 03:41:32;;;;;;;16.30;8.60;;;14.10;99.90;;;;;;4905979;29;20059;-57
2023/10/06 03:44:03;;;;;;;19.67;8.80;;;14.10;99.90;;;;;;4902450;29;20052;-62
2023/10/06 03:46:36;;;;;;;13.13;8.45;;;14.00;99.90;;;;;;4904085;29;20052;-57
2023/10/06 03:49:04;;;;;;;17.17;9.50;;;14.10;99.90;;;;;;4921178;28;20398;-63
2023/10/06 03:51:38;;;;;;;17.13;9.25;;;13.90;99.90;;;;;;4922006;29;20047;-56
2023/10/06 03:54:04;;;;;;;17.88;9.27;;;13.90;99.90;;;;;;4921886;28;20048;-57
2023/10/06 03:56:30;;;;;;;15.18;8.98;;;13.80;99.90;;;;;;4917267;28;20123;-62
2023/10/06 03:58:56;;;;;;;20.40;8.88;;;14.10;99.90;;;;;;4909166;29;20079;-62
2023/10/06 04:01:31;;;;;;;17.52;9.52;;;13.90;99.90;;;;;;4904572;28;20594;-60
2023/10/06 04:04:00;;;;;;;;;;;14.20;99.90;;;;;;4904600;28;20095;-58
2023/10/06 04:06:26;;;;;;;19.35;9.35;;;13.90;99.90;;;;;;4902100;29;19930;-61
2023/10/06 04:08:57;;;;;;;19.85;10.20;;;13.80;99.90;;;;;;4904236;28;20105;-64
2023/10/06 04:11:22;;;;;;;86.97;26.58;;;13.90;99.90;;;;;;4903238;29;20063;-62
2023/10/06 04:13:48;;;;;;;17.60;9.63;;;13.80;99.90;;;;;;4922272;28;20387;-63
2023/10/06 04:16:14;;;;;;;43.33;23.15;;;14.10;99.90;;;;;;4922322;28;20071;-63
2023/10/06 04:18:41;;;;;;;903.13;729.73;;;13.90;99.90;;;;;;4905620;28;20105;-61
2023/10/06 04:21:11;;;;;;;16.42;9.25;;;13.80;99.90;;;;;;4921188;29;20043;-56
2023/10/06 04:23:41;;;;;;;18.50;9.60;;;13.80;99.90;;;;;;4922563;28;21002;-60
2023/10/06 04:26:08;;;;;;;18.05;10.57;;;13.80;99.90;;;;;;4905346;28;20345;-61
2023/10/06 04:28:33;;;;;;;18.52;9.82;;;14.10;99.90;;;;;;4921911;29;20051;-53
2023/10/06 04:31:01;;;;;;;20.48;10.27;;;13.80;99.90;;;;;;4922700;29;20044;-64
2023/10/06 04:33:28;;;;;;;22.67;10.23;;;13.80;99.90;;;;;;4922807;29;20051;-62
2023/10/06 04:36:27;;;;;;;23.15;9.77;;;13.80;99.90;;;;;;4921778;29;20411;-61
2023/10/06 04:38:46;;;;;;;19.13;9.85;;;14.20;99.90;;;;;;4920842;29;20055;-62
2023/10/06 04:41:14;;;;;;;17.83;10.15;;;13.90;99.90;;;;;;4922751;29;20040;-64
2023/10/06 04:43:44;;;;;;;21.15;10.48;;;13.80;99.90;;;;;;4921555;29;20117;-62
2023/10/06 04:46:10;;;;;;;21.15;9.75;;;13.90;99.90;;;;;;4922587;28;20051;-58
2023/10/06 04:48:36;;;;;;;16.55;10.00;;;13.90;99.90;;;;;;4922012;28;20066;-57
2023/10/06 04:51:03;;;;;;;14.85;9.25;;;14.00;99.90;;;;;;4922060;29;20044;-55
2023/10/06 04:53:34;;;;;;;15.15;8.80;;;13.90;99.90;;;;;;4921165;28;20047;-57
2023/10/06 04:56:02;;;;;;;14.80;9.10;;;13.90;99.90;;;;;;4917296;29;20056;-61
2023/10/06 04:58:29;;;;;;;17.73;10.00;;;13.90;99.90;;;;;;4910655;28;20046;-59
2023/10/06 05:00:59;;;;;;;17.05;9.05;;;13.90;99.90;;;;;;4901738;28;20060;-62
2023/10/06 05:03:40;;;;;;;15.90;9.32;;;14.10;99.90;;;;;;4903100;29;20063;-58
2023/10/06 05:06:17;;;;;;;17.05;8.85;;;13.80;99.90;;;;;;4900242;28;20191;-56
2023/10/06 05:08:46;;;;;;;18.10;9.32;;;13.80;99.90;;;;;;4901245;29;20047;-53
2023/10/06 05:11:14;;;;;;;16.80;9.13;;;13.90;99.90;;;;;;4902678;28;20052;-58
2023/10/06 05:13:40;;;;;;;17.55;9.02;;;13.90;99.90;;;;;;4901766;28;20146;-58
2023/10/06 05:16:06;;;;;;;14.82;9.40;;;13.80;99.90;;;;;;4903092;29;20127;-60
2023/10/06 05:18:33;;;;;;;18.52;8.88;;;13.70;99.90;;;;;;4905371;28;20056;-60
2023/10/06 05:20:59;;;;;;;19.67;8.40;;;13.70;99.90;;;;;;4904740;28;20105;-63
2023/10/06 05:23:26;;;;;;;14.50;8.57;;;13.70;99.90;;;;;;4906672;28;20048;-64
2023/10/06 05:25:54;;;;;;;17.00;8.45;;;13.80;99.90;;;;;;4906775;28;20154;-63
2023/10/06 05:28:20;;;;;;;21.17;9.00;;;13.90;99.90;;;;;;4905488;28;20410;-54
2023/10/06 05:30:46;;;;;;;19.42;9.00;;;13.90;99.90;;;;;;4906496;29;20050;-56
2023/10/06 05:33:14;;;;;;;20.13;8.90;;;13.80;99.90;;;;;;4906081;29;20048;-63
2023/10/06 05:35:39;;;;;;;16.38;8.40;;;13.70;99.90;;;;;;4905838;29;21036;-58
2023/10/06 05:38:13;;;;;;;14.63;7.95;;;13.70;99.90;;;;;;4904393;28;20051;-59
2023/10/06 05:40:40;;;;;;;13.32;8.13;;;13.70;99.90;;;;;;4906506;29;20591;-61
2023/10/06 05:43:09;;;;;;;12.05;7.80;;;13.70;99.90;;;;;;4906538;28;20044;-64
2023/10/06 05:45:35;;;;;;;21.15;7.90;;;13.70;99.90;;;;;;4911091;28;20055;-62
2023/10/06 05:48:06;;;;;;;15.60;7.70;;;13.90;99.90;;;;;;4922468;29;20051;-52
2023/10/06 05:50:35;;;;;;;17.23;7.82;;;13.70;99.90;;;;;;4924064;29;20039;-57
2023/10/06 05:53:05;;;;;;;17.60;8.43;;;13.80;99.90;;;;;;4923863;29;20086;-61
2023/10/06 05:55:33;;;;;;;16.38;8.07;;;13.80;99.90;;;;;;4922737;29;20058;-62
2023/10/06 05:58:00;;;;;;;14.98;8.48;;;13.90;99.90;;;;;;4915574;29;20052;-61
2023/10/06 06:00:33;;;;;;;14.77;7.80;;;13.90;99.90;;;;;;4905408;28;20055;-55
2023/10/06 06:03:09;;;;;;;18.73;8.35;;;13.90;99.90;;;;;;4905833;29;20127;-65
2023/10/06 06:05:38;;;;;;;18.83;8.50;;;13.80;99.90;;;;;;4903884;29;20582;-57
2023/10/06 06:08:04;;;;;;;18.83;7.75;;;13.80;99.90;;;;;;4905996;28;20174;-59
2023/10/06 06:10:30;;;;;;;14.68;8.02;;;13.80;99.90;;;;;;4905757;29;20059;-64
2023/10/06 06:12:56;;;;;;;14.73;8.10;;;13.80;99.90;;;;;;4905951;29;20052;-60
2023/10/06 06:15:22;;;;;;;15.27;8.00;;;13.70;99.90;;;;;;4904967;29;20063;-62
2023/10/06 06:17:49;;;;;;;15.65;8.32;;;13.60;99.90;;;;;;4906636;28;20447;-58
2023/10/06 06:20:18;;;;;;;17.02;8.57;;;13.60;99.90;;;;;;4904273;29;20056;-62
2023/10/06 06:22:53;;;;;;;16.67;8.73;;;13.70;99.90;;;;;;4904983;28;20087;-59
2023/10/06 06:25:19;;;;;;;19.08;8.68;;;13.70;99.90;;;;;;4905741;28;20040;-60
2023/10/06 06:27:45;;;;;;;14.75;8.30;;;13.80;99.90;;;;;;4904573;29;20059;-62
2023/10/06 06:30:11;;;;;;;16.70;8.27;;;13.80;99.90;;;;;;4904626;29;20509;-58
2023/10/06 06:32:37;;;;;;;15.50;8.63;;;13.80;99.90;;;;;;4904390;28;20060;-63
2023/10/06 06:35:02;;;;;;;16.63;8.70;;;13.80;99.90;;;;;;4912099;28;20052;-55
2023/10/06 06:37:28;;;;;;;17.30;8.13;;;13.80;99.90;;;;;;4903046;29;20102;-58
2023/10/06 06:39:55;;;;;;;12.77;7.63;;;13.90;99.90;;;;;;4903396;29;20052;-61
2023/10/06 06:42:20;;;;;;;17.77;8.55;;;13.90;99.90;;;;;;4913807;28;20048;-58
2023/10/06 06:44:48;;;;;;;15.77;8.48;;;13.80;99.90;;;;;;4917105;29;20050;-53
2023/10/06 06:47:18;;;;;;;16.25;8.75;;;13.90;99.90;;;;;;4904715;28;20044;-54
2023/10/06 06:49:44;;;;;;;19.33;8.93;;;13.90;99.90;;;;;;4902345;28;20046;-58
2023/10/06 06:52:12;;;;;;;16.67;8.20;;;13.90;99.90;;;;;;4904153;29;20044;-58
2023/10/06 06:54:39;;;;;;;17.63;8.30;;;14.00;99.90;;;;;;4903401;28;20048;-62
2023/10/06 06:57:04;;;;;;;18.23;8.10;;;13.90;99.90;;;;;;4913783;28;20068;-63
2023/10/06 06:59:31;;;;;;;14.40;8.52;;;14.00;99.90;;;;;;4904918;28;20525;-60
2023/10/06 07:01:58;;;;;;;15.40;8.30;;;14.00;99.90;;;;;;4905371;28;20056;-64
2023/10/06 07:04:26;;;;;;;13.52;7.65;;;14.00;99.90;;;;;;4911066;29;20052;-62
2023/10/06 07:06:52;;;;;;;19.48;8.77;;;14.30;99.90;;;;;;4914618;28;20055;-60
2023/10/06 07:09:18;;;;;;;18.15;8.50;;;14.00;99.90;;;;;;4912594;29;20066;-57
2023/10/06 07:11:44;;;;;;;15.02;7.88;;;14.00;99.90;;;;;;4911894;29;20048;-56
2023/10/06 07:14:10;;;;;;;16.75;8.13;;;14.10;99.90;;;;;;4914619;28;20094;-57
2023/10/06 07:16:36;;;;;;;15.93;8.35;;;14.10;99.90;;;;;;4912778;29;20052;-55
2023/10/06 07:19:03;;;;;;;18.42;8.60;;;14.10;99.90;;;;;;4904424;29;20048;-57
2023/10/06 07:21:30;;;;;;;17.90;8.20;;;14.10;99.90;;;;;;4920660;28;20051;-58
2023/10/06 07:23:56;;;;;;;14.90;7.90;;;14.10;99.90;;;;;;4911860;28;21247;-59
2023/10/06 07:26:22;;;;;;;17.70;8.63;;;14.50;99.90;;;;;;4904437;29;20042;-62
2023/10/06 07:28:52;;;;;;;16.25;8.23;;;14.30;99.90;;;;;;4904282;29;20048;-60
2023/10/06 07:31:17;;;;;;;14.35;7.97;;;14.30;99.90;;;;;;4905502;28;20036;-58
2023/10/06 07:33:52;;;;;;;15.57;7.78;;;14.40;99.90;;;;;;4908001;28;20468;-62
2023/10/06 07:36:17;;;;;;;15.82;7.68;;;14.40;99.90;;;;;;4922846;29;20130;-57
2023/10/06 07:38:44;;;;;;;14.60;7.78;;;14.50;99.90;;;;;;4923677;29;20123;-59
2023/10/06 07:41:23;;;;;;;18.05;7.60;;;14.50;99.90;;;;;;4921697;29;20083;-54
2023/10/06 07:43:49;;;;;;;16.92;8.45;;;14.60;99.90;;;;;;4923701;29;20044;-56
2023/10/06 07:46:16;;;;;;;15.75;8.07;;;14.70;99.90;;;;;;4923505;28;20051;-58
2023/10/06 07:48:44;;;;;;;15.90;7.65;;;14.70;99.90;;;;;;4923335;28;20094;-57
2023/10/06 07:51:13;;;;;;;14.70;8.10;;;14.70;99.90;;;;;;4922679;29;20043;-62
2023/10/06 07:53:39;;;;;;;18.08;8.70;;;14.70;99.90;;;;;;4916674;29;20422;-64
2023/10/06 07:56:06;;;;;;;17.88;8.45;;;14.80;99.90;;;;;;4917537;29;20044;-63
2023/10/06 07:58:38;;;;;;;16.23;8.05;;;14.80;99.90;;;;;;4913622;29;20618;-61
2023/10/06 08:01:08;;;;;;;15.65;8.35;;;14.90;99.90;;;;;;4911198;29;20039;-60
2023/10/06 08:03:38;;;;;;;13.95;8.48;;;15.00;99.90;;;;;;4922620;29;20082;-63
2023/10/06 08:06:05;;;;;;;16.92;8.43;;;15.00;99.90;;;;;;4908323;28;20048;-61
2023/10/06 08:08:35;;;;;;;16.90;8.63;;;15.00;99.90;;;;;;4902955;29;20418;-58
2023/10/06 08:11:05;;;;;;;16.63;8.27;;;15.00;99.90;;;;;;4906586;28;20076;-59
2023/10/06 08:13:33;;;;;;;15.05;8.75;;;15.20;99.90;;;;;;4921934;29;20553;-63
2023/10/06 08:15:59;;;;;;;13.82;8.68;;;15.10;99.90;;;;;;4921763;28;20060;-60
2023/10/06 08:18:29;;;;;;;19.58;8.98;;;15.10;99.90;;;;;;4921587;29;20457;-57
2023/10/06 08:21:03;;;;;;;17.38;9.30;;;15.00;99.90;;;;;;4924239;28;20649;-65
2023/10/06 08:23:29;;;;;;;17.58;9.82;;;15.00;99.90;;;;;;4921740;29;20056;-62
2023/10/06 08:25:56;;;;;;;19.60;10.30;;;15.00;99.90;;;;;;4921126;28;20359;-65
2023/10/06 08:28:26;;;;;;;12.38;9.07;;;15.00;99.90;;;;;;4920418;29;20052;-62
2023/10/06 08:30:52;;;;;;;16.88;9.45;;;14.90;99.90;;;;;;4920730;29;20139;-61
2023/10/06 08:33:18;;;;;;;22.40;10.57;;;15.30;99.90;;;;;;4922437;29;20382;-65
2023/10/06 08:35:44;;;;;;;20.63;9.77;;;15.00;99.90;;;;;;4921806;29;20056;-63
2023/10/06 08:38:10;;;;;;;17.13;9.43;;;15.00;99.90;;;;;;4922809;29;20047;-63
2023/10/06 08:40:40;;;;;;;16.98;9.27;;;15.20;99.90;;;;;;4919916;29;20059;-56
2023/10/06 08:43:06;;;;;;;15.82;9.55;;;15.10;99.90;;;;;;4921964;29;20059;-59
2023/10/06 08:45:37;;;;;;;17.10;9.70;;;15.10;99.90;;;;;;4921032;29;20210;-53
2023/10/06 08:48:09;;;;;;;78.53;26.07;;;15.10;99.90;;;;;;4922180;29;20047;-52
2023/10/06 08:50:35;;;;;;;17.30;9.35;;;15.80;99.90;;;;;;4919852;29;20832;-59
2023/10/06 08:53:05;;;;;;;15.50;8.98;;;15.50;99.90;;;;;;4924082;29;20201;-60
2023/10/06 08:55:31;;;;;;;15.82;8.80;;;15.60;99.90;;;;;;4921749;29;20652;-66
2023/10/06 08:58:00;;;;;;;17.08;9.18;;;15.50;99.90;;;;;;4919599;28;20166;-60
2023/10/06 09:00:31;;;;;;;17.25;9.85;;;15.50;99.90;;;;;;4905932;28;20483;-60
2023/10/06 09:03:07;;;;;;;19.45;9.57;;;15.50;99.90;;;;;;4905879;29;20051;-64
2023/10/06 09:05:46;;;;;;;16.70;9.35;;;15.50;99.90;;;;;;4910568;29;20387;-54
2023/10/06 09:08:14;;;;;;;16.77;9.07;;;15.60;99.90;;;;;;4920633;29;20040;-63
2023/10/06 09:10:50;;;;;;;17.08;8.95;;;15.70;99.90;;;;;;4924545;29;20374;-60
2023/10/06 09:13:20;;;;;;;18.50;9.15;;;15.70;99.90;;;;;;4925537;29;20142;-59
2023/10/06 09:16:02;;;;;;;15.05;9.18;;;15.70;99.90;;;;;;4924107;28;20099;-52
2023/10/06 09:18:29;;;;;;;402.83;303.98;;;15.80;99.90;;;;;;4925286;29;20134;-55
2023/10/06 09:21:19;;;;;;;17.60;8.23;;;15.70;99.90;;;;;;4924661;28;20035;-65
2023/10/06 09:23:45;;;;;;;14.48;8.15;;;15.80;99.90;;;;;;4913553;29;20048;-61
2023/10/06 09:26:25;;;;;;;14.27;8.20;;;15.80;99.90;;;;;;4925056;28;20131;-61
2023/10/06 09:28:54;;;;;;;16.17;8.32;;;15.80;99.90;;;;;;4920516;28;20066;-61
2023/10/06 09:31:46;;;;;;;14.52;8.60;;;15.80;99.90;;;;;;4906228;29;20040;-53
2023/10/06 09:34:22;;;;;;;20.20;7.97;;;15.90;99.90;;;;;;4914661;28;20130;-55
2023/10/06 09:36:48;;;;;;;18.98;8.00;;;15.80;99.90;;;;;;4905881;28;20117;-56
2023/10/06 09:39:32;;;;;;;19.23;8.02;;;15.20;99.90;;;;;;4920140;29;20052;-61
2023/10/06 09:42:00;;;;;;;17.33;8.10;;;15.90;99.90;;;;;;4904786;28;20048;-63
2023/10/06 09:44:27;;;;;;;16.50;7.47;;;16.00;99.90;;;;;;4908795;28;20047;-61
2023/10/06 09:46:53;;;;;;;15.80;7.32;;;16.00;99.90;;;;;;4906713;28;20044;-58
2023/10/06 09:49:20;;;;;;;15.25;7.10;;;16.00;99.90;;;;;;4922399;29;20204;-47
2023/10/06 09:51:46;;;;;;;15.25;6.82;;;16.20;99.90;;;;;;4925119;29;20050;-63
2023/10/06 09:54:14;;;;;;;16.63;7.47;;;16.10;99.90;;;;;;4922487;29;20052;-59
2023/10/06 09:56:40;;;;;;;16.85;7.70;;;16.20;99.90;;;;;;4918284;28;20051;-55
2023/10/06 09:59:15;;;;;;;17.67;7.00;;;16.30;99.90;;;;;;4913800;28;20134;-61
2023/10/06 10:01:47;;;;;;;15.25;7.22;;;16.30;99.90;;;;;;4910471;28;20048;-57
2023/10/06 10:04:14;;;;;;;17.90;7.30;;;16.40;99.90;;;;;;4905796;28;20044;-61
2023/10/06 10:06:44;;;;;;;13.50;7.10;;;16.40;99.90;;;;;;4914919;29;20220;-56
2023/10/06 10:09:16;;;;;;;16.17;6.78;;;16.60;99.90;;;;;;4924723;28;20565;-53
2023/10/06 10:12:22;;;;;;;17.50;7.15;;;16.70;99.90;;;;;;4924792;29;20055;-56
2023/10/06 10:15:12;;;;;;;15.30;6.85;;;16.80;99.90;;;;;;4925487;28;20071;-60
2023/10/06 10:17:53;;;;;;;13.30;7.32;;;17.10;99.90;;;;;;4910100;29;20057;-55
2023/10/06 10:20:24;;;;;;;14.45;6.07;;;17.40;99.90;;;;;;4905600;28;20071;-63
2023/10/06 10:22:52;;;;;;;19.33;6.35;;;17.50;99.90;;;;;;4906015;28;20048;-60
2023/10/06 10:25:19;;;;;;;14.48;6.25;;;17.60;99.90;;;;;;4905598;28;20056;-62
2023/10/06 10:28:04;;;;;;;13.45;6.32;;;17.50;99.90;;;;;;4906177;28;20059;-59
2023/10/06 10:30:50;;;;;;;13.10;5.78;;;17.40;99.90;;;;;;4917021;28;20055;-60
2023/10/06 10:33:21;;;;;;;14.70;6.28;;;17.40;99.90;;;;;;4924499;28;20506;-58
2023/10/06 10:36:14;;;;;;;15.38;5.60;;;17.30;99.90;;;;;;4918279;29;20689;-61
2023/10/06 10:38:44;;;;;;;506.95;313.88;;;17.40;99.90;;;;;;4906053;28;20054;-59
2023/10/06 10:41:11;;;;;;;13.82;6.18;;;17.50;99.90;;;;;;4903927;29;20056;-62
2023/10/06 10:43:37;;;;;;;14.50;5.43;;;17.60;99.90;;;;;;4906103;28;20044;-52
2023/10/06 10:46:08;;;;;;;922.20;767.08;;;17.70;99.90;;;;;;4905936;29;20044;-58
2023/10/06 10:48:47;;;;;;;15.20;5.28;;;17.70;99.90;;;;;;4903972;29;20135;-58
2023/10/06 10:51:14;;;;;;;369.88;339.60;;;17.70;99.90;;;;;;4916256;29;20051;-57
2023/10/06 10:53:44;;;;;;;;;;;17.80;99.90;;;;;;4923688;29;20044;-60
2023/10/06 10:56:39;;;;;;;12.38;5.45;;;17.80;99.90;;;;;;4913630;28;19930;-60
2023/10/06 10:59:05;;;;;;;16.37;5.63;;;17.80;99.90;;;;;;4920247;28;20075;-62
2023/10/06 11:01:43;;;;;;;11.05;5.25;;;17.90;99.90;;;;;;4924110;28;20059;-59
2023/10/06 11:04:35;;;;;;;14.98;6.35;;;18.00;99.90;;;;;;4924090;28;20050;-61
2023/10/06 11:07:19;;;;;;;15.10;6.10;;;17.90;99.90;;;;;;4924570;29;20131;-60
2023/10/06 11:09:48;;;;;;;13.70;5.63;;;17.90;99.90;;;;;;4924325;29;20522;-56
2023/10/06 11:12:17;;;;;;;12.63;5.32;;;17.90;99.90;;;;;;4923402;28;20048;-57
2023/10/06 11:14:43;;;;;;;16.23;6.15;;;17.90;99.90;;;;;;4921574;29;20058;-60
2023/10/06 11:17:11;;;;;;;12.80;5.65;;;17.90;99.90;;;;;;4924496;29;20043;-56
2023/10/06 11:19:38;;;;;;;14.52;5.68;;;17.90;99.90;;;;;;4923388;29;20044;-61
2023/10/06 11:22:22;;;;;;;10.73;5.38;;;17.80;99.90;;;;;;4924051;29;20052;-57
2023/10/06 11:24:50;;;;;;;11.15;5.38;;;17.90;99.90;;;;;;4923606;28;20079;-56
2023/10/06 11:27:16;;;;;;;;;;;18.10;99.90;;;;;;4923579;28;20048;-62
2023/10/06 11:29:42;;;;;;;;;;;18.10;99.90;;;;;;4917573;28;25454;-63
2023/10/06 11:32:08;;;;;;;;;;;18.40;99.90;;;;;;4917262;28;25075;-52
2023/10/06 11:34:34;;;;;;;11.48;4.38;;;18.70;99.90;;;;;;4922220;28;20781;-57
2023/10/06 11:37:01;;;;;;;;;;;18.90;99.90;;;;;;4923606;28;20047;-55
2023/10/06 11:39:29;;;;;;;;;;;18.90;99.90;;;;;;4916627;28;25160;-63
2023/10/06 11:42:13;;;;;;;;;;;18.90;99.90;;;;;;4917117;28;25075;-52
2023/10/06 11:44:38;;;;;;;;;;;19.30;99.90;;;;;;4917107;29;20204;-60
2023/10/06 11:47:05;;;;;;;;;;;19.50;99.90;;;;;;4916960;28;25066;-62
2023/10/06 11:49:30;;;;;;;;;;;19.50;99.90;;;;;;4916841;28;25193;-62
2023/10/06 11:51:57;;;;;;;;;;;19.70;99.90;;;;;;4918062;28;25074;-61
2023/10/06 11:54:22;;;;;;;;;;;19.70;99.90;;;;;;4916737;29;25074;-56
2023/10/06 11:56:49;;;;;;;;;;;19.80;99.90;;;;;;4911088;28;25107;-61
2023/10/06 11:59:24;;;;;;;;;;;19.80;99.90;;;;;;4901938;28;25075;-62
2023/10/06 12:01:49;;;;;;;;;;;19.90;99.90;;;;;;4900095;29;25120;-62
2023/10/06 12:04:30;;;;;;;;;;;20.00;99.90;;;;;;4907673;28;25087;-61
2023/10/06 12:06:56;;;;;;;;;;;19.90;99.90;;;;;;4906969;28;25077;-53
2023/10/06 12:09:25;;;;;;;;;;;19.80;99.90;;;;;;4907883;28;25129;-57
2023/10/06 12:11:54;;;;;;;;;;;19.60;99.90;;;;;;4898319;28;25058;-62
2023/10/06 12:14:20;;;;;;;;;;;19.60;99.90;;;;;;4898327;29;25067;-56
2023/10/06 12:16:46;;;;;;;;;;;19.70;99.90;;;;;;4897601;28;25157;-58
2023/10/06 12:19:12;;;;;;;;;;;19.70;99.90;;;;;;4896408;28;25113;-56
2023/10/06 12:21:37;;;;;;;;;;;19.90;99.90;;;;;;4897508;29;25066;-62
2023/10/06 12:24:03;;;;;;;;;;;20.30;99.90;;;;;;4898416;28;25066;-61
2023/10/06 12:26:32;;;;;;;;;;;19.90;99.90;;;;;;4900055;28;25116;-61
2023/10/06 12:28:58;;;;;;;;;;;19.90;99.90;;;;;;4900323;29;25074;-54
2023/10/06 12:31:24;;;;;;;;;;;20.00;99.90;;;;;;4902060;29;25113;-61
2023/10/06 12:33:54;;;;;;;;;;;19.80;99.90;;;;;;4900506;28;25076;-66
2023/10/06 12:36:20;;;;;;;;;;;20.10;99.90;;;;;;4902844;28;25072;-56
2023/10/06 12:38:46;;;;;;;;;;;20.20;99.90;;;;;;4917332;29;25164;-54
2023/10/06 12:41:12;;;;;;;;;;;20.20;99.90;;;;;;4919664;28;25057;-55
2023/10/06 12:43:37;;;;;;;;;;;20.20;99.90;;;;;;4919401;28;25067;-50
2023/10/06 12:46:08;;;;;;;;;;;20.10;99.90;;;;;;4903893;29;25068;-54
2023/10/06 12:48:38;;;;;;;;;;;20.10;99.90;;;;;;4905934;28;25077;-56
2023/10/06 12:51:05;;;;;;;;;;;20.20;99.90;;;;;;4920189;29;25075;-56
2023/10/06 12:53:33;;;;;;;;;;;20.30;99.90;;;;;;4921303;28;25082;-61
2023/10/06 12:55:59;;;;;;;;;;;20.30;99.90;;;;;;4916063;28;25068;-61
2023/10/06 12:58:24;;;;;;;;;;;20.30;99.90;;;;;;4908499;29;25086;-62
2023/10/06 13:00:50;;;;;;;;;;;20.20;99.90;;;;;;4900502;28;25061;-60
2023/10/06 13:03:15;;;;;;;;;;;20.00;99.90;;;;;;4898171;29;25133;-61
2023/10/06 13:05:45;;;;;;;;;;;20.00;99.90;;;;;;4907772;29;25084;-61
2023/10/06 13:08:16;;;;;;;;;;;19.90;99.90;;;;;;4918406;28;25060;-61
2023/10/06 13:10:42;;;;;;;;;;;20.00;99.90;;;;;;4918773;29;25074;-60
2023/10/06 13:13:08;;;;;;;;;;;20.00;99.90;;;;;;4918922;28;25078;-59
2023/10/06 13:15:33;;;;;;;;;;;20.00;99.90;;;;;;4909520;28;25080;-60
2023/10/06 13:18:00;;;;;;;;;;;20.00;99.90;;;;;;4905289;29;25065;-60
2023/10/06 13:20:25;;;;;;;;;;;19.90;99.90;;;;;;4904853;29;25088;-60
2023/10/06 13:22:51;;;;;;;;;;;19.80;99.90;;;;;;4904296;29;25126;-60
2023/10/06 13:25:17;;;;;;;;;;;19.80;99.90;;;;;;4905748;29;25066;-60